Aérodrome :
LOGIN :

S'inscrire | Disclaimer

   EN    FR    IT 

 










Légende :    VFR   VFR Marginal   IFR   IFR Intensif   IFR Très Intensif
Visi : 
Plafond : 
>= 8 km
>= 3000ft
5 à 8 km
1000 à 3000 ft
1500m à 5 km
500 à 1000 ft
800 à 1500m
200 à 500 ft
< 800m
< 200 ft
Symboles :   Orages  Brouillard  Fortes neiges  Fortes précipitations  Vent > 20 kt
SIGMETs :   Divers  Orages  Givrage  Turbulence  Onde Orograph.  Cendres Volcan.






- Altitude de l'aérodrome : 16 ft
- Code IATA : AAE


DABB - Annaba-Rabah Bitat

DERNIER METAR :
  • 280000Z 21009KT CAVOK 09/06 Q1020

METARs EXPIRÉS :
  • 272330Z 21009KT CAVOK 09/07 Q1020
  • 272300Z 22008KT CAVOK 10/07 Q1020
  • 272230Z 22005KT CAVOK 10/07 Q1020
  • 272200Z 23004KT CAVOK 10/08 Q1020
  • 272130Z 24003KT CAVOK 10/08 Q1020

TAF TAF DABB
Valide du 28 à 00h jusqu'au 29 à 00h UTC


272300Z 2800/2824 20008KT CAVOK
BECMG 2810/2812 33010KT
BECMG 2817/2819 17006KT



MET'MAP, la Météo Aéronautique d'un coup d'oeil ! - Copyright ORBIFLY Décembre 2007 - Disclaimer

ORBIFLY MET'MAP TEAM :

Programmation & Développement : Alexandra Zaïnal
Sur une idée originale de : Baudouin d'Aumeries
Assistance à la programmation : Marc-Olivier Méhu
Soutien technique & logistique : Manuel Goepfert

Contact : metmap@orbifly.com




SOURCES & CREDITS :

   NOAA